1923 NOT_NAMED (1923179N12130)


IBTrACS version v04r00. Visit IBTrACS website for data access.
Please direct all questions to the IBTrACS Q and A forum

Storm track - Intensity - Wind Radii - Intensity Data - Source Data - All data

Summary Information

Storm ID 1923179N12130
Start Jun 27 22Z
Landfall Jun 29 18Z
End Jul 2 22Z
ATCF IDs
Track status Best track data.

Storm track plot

Map of storm track

Intensity plots

No Intensity information for this storm


Radial wind information

No radial wind information for this storm


Position and Intensity Table

BASIN ISO_TIME_________ NATURE LAT LON
degrees north degrees east
WP 1923-06-27 22:00:00 NR 12.20 129.70
WP 1923-06-28 00:00:00 NR 12.43 129.47
WP 03:00:00 NR 12.78 129.12
WP 06:00:00 NR 13.13 128.75
WP 09:00:00 NR 13.48 128.34
WP 10:00:00 NR 13.60 128.20
WP 12:00:00 NR 13.84 127.90
WP 15:00:00 NR 14.20 127.41
WP 18:00:00 NR 14.55 126.90
WP 21:00:00 NR 14.89 126.38
WP 22:00:00 NR 15.00 126.20
WP 1923-06-29 00:00:00 NR 15.21 125.87
WP 03:00:00 NR 15.52 125.36
WP 06:00:00 NR 15.82 124.84
WP 09:00:00 NR 16.11 124.29
WP 10:00:00 NR 16.20 124.10
WP 12:00:00 NR 16.41 123.69
WP 15:00:00 NR 16.72 123.05
WP 18:00:00 NR 17.00 122.41
WP 21:00:00 NR 17.24 121.79
WP 22:00:00 NR 17.30 121.60
WP 1923-06-30 00:00:00 NR 17.38 121.24
WP 03:00:00 NR 17.46 120.75
WP 06:00:00 NR 17.51 120.28
WP 09:00:00 NR 17.57 119.84
WP 10:00:00 NR 17.60 119.70
WP 12:00:00 NR 17.70 119.40
WP 15:00:00 NR 17.87 118.96
WP 18:00:00 NR 18.06 118.53
WP 21:00:00 NR 18.24 118.13
WP 22:00:00 NR 18.30 118.00
WP 1923-07-01 00:00:00 NR 18.39 117.74
WP 03:00:00 NR 18.50 117.37
WP 06:00:00 NR 18.62 117.03
WP 09:00:00 NR 18.75 116.70
WP 10:00:00 NR 18.80 116.60
WP 12:00:00 NR 18.92 116.40
WP 15:00:00 NR 19.11 116.11
WP 18:00:00 NR 19.32 115.84
WP 21:00:00 NR 19.53 115.58
WP 22:00:00 NR 19.60 115.50
WP 1923-07-02 00:00:00 NR 19.73 115.33
WP 03:00:00 NR 19.93 115.08
WP 06:00:00 NR 20.13 114.84
WP 09:00:00 NR 20.33 114.59
WP 10:00:00 NR 20.40 114.50
WP 12:00:00 NR 20.54 114.33
WP 15:00:00 NR 20.77 114.06
WP 18:00:00 NR 20.99 113.78
WP 21:00:00 NR 21.22 113.49
WP 22:00:00 NR 21.30 113.40

Source Information

Agency Information
USA
TOKYO
CMA
HKO
NEWDELHI
REUNION
BOM
NADI
WELLINGTON
DS824
TD9636 cons_worldwide_trop_cyclone_18710101-19891231-003:Line=6889
TD9635
NEUMANN
MLC

All available IBTrACS Data

SEASON BASIN SUBBASIN ISO_TIME_________ NATURE LAT LON DIST2LAND LANDFALL IFLAG USA SSHS TD9636 LAT TD9636 LON TD9636 STAGE STORM SPEED STORM DIR
Year degrees north degrees east km km 1 degrees north degrees east kts degrees
1923 WP MM 1923-06-27 22:00:00 NR 12.20 129.70 445 432 __________O___ -1 12.20 129.70 4 10 316
1923 WP MM 1923-06-28 00:00:00 NR 12.43 129.47 432 396 __________P___ -1 12.43 129.47 4 10 316
1923 WP MM 03:00:00 NR 12.78 129.12 396 361 __________P___ -1 12.78 129.12 4 10 315
1923 WP MM 06:00:00 NR 13.13 128.75 361 336 __________P___ -1 13.13 128.75 4 10 313
1923 WP MM 09:00:00 NR 13.48 128.34 336 332 __________P___ -1 13.48 128.34 4 11 312
1923 WP MM 10:00:00 NR 13.60 128.20 332 315 __________O___ -1 13.60 128.20 4 11 310
1923 WP MM 12:00:00 NR 13.84 127.90 315 303 __________P___ -1 13.84 127.90 4 12 308
1923 WP MM 15:00:00 NR 14.20 127.41 303 277 __________P___ -1 14.20 127.41 4 12 306
1923 WP MM 18:00:00 NR 14.55 126.90 277 242 __________P___ -1 14.55 126.90 4 12 305
1923 WP MM 21:00:00 NR 14.89 126.38 242 229 __________P___ -1 14.89 126.38 4 12 304
1923 WP MM 22:00:00 NR 15.00 126.20 229 217 __________O___ -1 15.00 126.20 4 12 303
1923 WP MM 1923-06-29 00:00:00 NR 15.21 125.87 217 203 __________P___ -1 15.21 125.87 4 12 303
1923 WP MM 03:00:00 NR 15.52 125.36 205 199 __________P___ -1 15.52 125.36 4 12 301
1923 WP MM 06:00:00 NR 15.82 124.84 208 208 __________P___ -1 15.82 124.84 4 12 300
1923 WP MM 09:00:00 NR 16.11 124.29 211 187 __________P___ -1 16.11 124.29 4 12 298
1923 WP MM 10:00:00 NR 16.20 124.10 187 139 __________O___ -1 16.20 124.10 4 13 298
1923 WP MM 12:00:00 NR 16.41 123.69 139 67 __________P___ -1 16.41 123.69 4 14 297
1923 WP MM 15:00:00 NR 16.72 123.05 67 0 __________P___ -1 16.72 123.05 4 14 296
1923 WP MM 18:00:00 NR 17.00 122.41 0 0 __________P___ -1 17.00 122.41 4 13 293
1923 WP MM 21:00:00 NR 17.24 121.79 0 0 __________P___ -1 17.24 121.79 4 12 291
1923 WP MM 22:00:00 NR 17.30 121.60 0 0 __________O___ -1 17.30 121.60 4 11 286
1923 WP MM 1923-06-30 00:00:00 NR 17.38 121.24 0 0 __________P___ -1 17.38 121.24 4 10 281
1923 WP MM 03:00:00 NR 17.46 120.75 0 0 __________P___ -1 17.46 120.75 4 9 278
1923 WP MM 06:00:00 NR 17.51 120.28 10 10 __________P___ -1 17.51 120.28 4 9 277
1923 WP MM 09:00:00 NR 17.57 119.84 53 53 __________P___ -1 17.57 119.84 4 8 279
1923 WP MM 10:00:00 NR 17.60 119.70 63 63 __________O___ -1 17.60 119.70 4 9 287
1923 WP MM 12:00:00 NR 17.70 119.40 96 96 __________P___ -1 17.70 119.40 4 9 291
1923 WP MM 15:00:00 NR 17.87 118.96 141 152 __________P___ -1 17.87 118.96 4 9 294
1923 WP MM 18:00:00 NR 18.06 118.53 198 198 __________P___ -1 18.06 118.53 4 9 295
1923 WP MM 21:00:00 NR 18.24 118.13 242 245 __________P___ -1 18.24 118.13 4 8 295
1923 WP MM 22:00:00 NR 18.30 118.00 255 255 __________O___ -1 18.30 118.00 4 8 291
1923 WP MM 1923-07-01 00:00:00 NR 18.39 117.74 289 289 __________P___ -1 18.39 117.74 4 8 289
1923 WP MM 03:00:00 NR 18.50 117.37 322 322 __________P___ -1 18.50 117.37 4 7 289
1923 WP MM 06:00:00 NR 18.62 117.03 366 366 __________P___ -1 18.62 117.03 4 7 291
1923 WP MM 09:00:00 NR 18.75 116.70 403 403 __________P___ -1 18.75 116.70 4 7 294
1923 WP MM 10:00:00 NR 18.80 116.60 413 413 __________O___ -1 18.80 116.60 4 7 300
1923 WP MM 12:00:00 NR 18.92 116.40 429 400 __________P___ -1 18.92 116.40 4 7 304
1923 WP MM 15:00:00 NR 19.11 116.11 400 369 __________P___ -1 19.11 116.11 4 7 307
1923 WP MM 18:00:00 NR 19.32 115.84 369 340 __________P___ -1 19.32 115.84 4 7 310
1923 WP MM 21:00:00 NR 19.53 115.58 340 326 __________P___ -1 19.53 115.58 4 6 311
1923 WP MM 22:00:00 NR 19.60 115.50 326 308 __________O___ -1 19.60 115.50 4 6 310
1923 WP MM 1923-07-02 00:00:00 NR 19.73 115.33 308 280 __________P___ -1 19.73 115.33 4 6 310
1923 WP MM 03:00:00 NR 19.93 115.08 280 251 __________P___ -1 19.93 115.08 4 6 310
1923 WP MM 06:00:00 NR 20.13 114.84 251 225 __________P___ -1 20.13 114.84 4 6 311
1923 WP MM 09:00:00 NR 20.33 114.59 225 213 __________P___ -1 20.33 114.59 4 6 311
1923 WP MM 10:00:00 NR 20.40 114.50 213 201 __________O___ -1 20.40 114.50 4 6 311
1923 WP MM 12:00:00 NR 20.54 114.33 201 167 __________P___ -1 20.54 114.33 4 7 311
1923 WP MM 15:00:00 NR 20.77 114.06 167 130 __________P___ -1 20.77 114.06 4 7 311
1923 WP MM 18:00:00 NR 20.99 113.78 130 93 __________P___ -1 20.99 113.78 4 7 311
1923 WP MM 21:00:00 NR 21.22 113.49 93 78 __________P___ -1 21.22 113.49 4 7 311
1923 WP MM 22:00:00 NR 21.30 113.40 78 __________O___ -1 21.30 113.40 4 7 310